sensor_id;sensor_type;location;lat;lon;timestamp;temperature;humidity
7447;DHT22;3765;47.962;7.952;2022-08-04T00:00:39;22.30;51.80
7447;DHT22;3765;47.962;7.952;2022-08-04T00:03:17;22.30;51.90
7447;DHT22;3765;47.962;7.952;2022-08-04T00:06:02;22.30;52.10
7447;DHT22;3765;47.962;7.952;2022-08-04T00:08:39;22.30;52.00
7447;DHT22;3765;47.962;7.952;2022-08-04T00:11:18;22.30;52.10
7447;DHT22;3765;47.962;7.952;2022-08-04T00:13:53;22.20;52.20
7447;DHT22;3765;47.962;7.952;2022-08-04T00:16:34;22.20;52.20
7447;DHT22;3765;47.962;7.952;2022-08-04T00:19:10;22.30;52.20
7447;DHT22;3765;47.962;7.952;2022-08-04T00:21:46;22.20;52.20
7447;DHT22;3765;47.962;7.952;2022-08-04T00:24:21;22.30;52.20
7447;DHT22;3765;47.962;7.952;2022-08-04T00:26:55;22.30;52.20
7447;DHT22;3765;47.962;7.952;2022-08-04T00:29:24;22.20;52.30
7447;DHT22;3765;47.962;7.952;2022-08-04T00:32:03;22.20;52.30
7447;DHT22;3765;47.962;7.952;2022-08-04T00:34:34;22.10;52.50
7447;DHT22;3765;47.962;7.952;2022-08-04T00:37:05;22.00;52.50
7447;DHT22;3765;47.962;7.952;2022-08-04T00:39:54;22.00;52.60
7447;DHT22;3765;47.962;7.952;2022-08-04T00:42:43;21.90;52.70
7447;DHT22;3765;47.962;7.952;2022-08-04T00:49:03;21.90;52.90
7447;DHT22;3765;47.962;7.952;2022-08-04T00:51:46;21.90;53.00
7447;DHT22;3765;47.962;7.952;2022-08-04T00:54:45;21.90;53.00
7447;DHT22;3765;47.962;7.952;2022-08-04T00:57:35;21.90;53.10
7447;DHT22;3765;47.962;7.952;2022-08-04T01:00:07;21.80;53.20
7447;DHT22;3765;47.962;7.952;2022-08-04T01:02:56;21.80;53.30
7447;DHT22;3765;47.962;7.952;2022-08-04T01:05:49;21.80;53.30
7447;DHT22;3765;47.962;7.952;2022-08-04T01:08:38;21.80;53.40
7447;DHT22;3765;47.962;7.952;2022-08-04T01:11:22;21.80;53.40
7447;DHT22;3765;47.962;7.952;2022-08-04T01:14:09;21.80;53.50
7447;DHT22;3765;47.962;7.952;2022-08-04T01:16:47;21.80;53.60
7447;DHT22;3765;47.962;7.952;2022-08-04T01:19:50;21.70;53.60
7447;DHT22;3765;47.962;7.952;2022-08-04T01:22:48;21.70;53.60
7447;DHT22;3765;47.962;7.952;2022-08-04T01:25:37;21.70;53.70
7447;DHT22;3765;47.962;7.952;2022-08-04T01:28:28;21.70;53.70
7447;DHT22;3765;47.962;7.952;2022-08-04T01:31:25;21.70;53.80
7447;DHT22;3765;47.962;7.952;2022-08-04T01:33:59;21.60;53.80
7447;DHT22;3765;47.962;7.952;2022-08-04T01:36:41;21.60;53.90
7447;DHT22;3765;47.962;7.952;2022-08-04T01:39:18;21.60;53.80
7447;DHT22;3765;47.962;7.952;2022-08-04T01:42:03;21.60;53.90
7447;DHT22;3765;47.962;7.952;2022-08-04T01:45:03;21.50;54.00
7447;DHT22;3765;47.962;7.952;2022-08-04T01:47:42;21.40;54.00
7447;DHT22;3765;47.962;7.952;2022-08-04T01:50:19;21.40;54.20
7447;DHT22;3765;47.962;7.952;2022-08-04T01:52:49;21.30;54.30
7447;DHT22;3765;47.962;7.952;2022-08-04T01:55:21;21.30;54.30
7447;DHT22;3765;47.962;7.952;2022-08-04T01:58:12;21.30;54.40
7447;DHT22;3765;47.962;7.952;2022-08-04T02:00:56;21.30;54.40
7447;DHT22;3765;47.962;7.952;2022-08-04T02:03:32;21.30;54.40
7447;DHT22;3765;47.962;7.952;2022-08-04T02:06:29;21.20;54.60
7447;DHT22;3765;47.962;7.952;2022-08-04T02:09:07;21.10;54.70
7447;DHT22;3765;47.962;7.952;2022-08-04T02:11:40;21.00;54.80
7447;DHT22;3765;47.962;7.952;2022-08-04T02:14:20;21.00;54.90
7447;DHT22;3765;47.962;7.952;2022-08-04T02:17:10;21.00;55.10
7447;DHT22;3765;47.962;7.952;2022-08-04T02:19:57;20.90;55.10
7447;DHT22;3765;47.962;7.952;2022-08-04T02:22:30;20.90;55.20
7447;DHT22;3765;47.962;7.952;2022-08-04T02:25:06;20.80;55.30
7447;DHT22;3765;47.962;7.952;2022-08-04T02:27:55;20.80;55.40
7447;DHT22;3765;47.962;7.952;2022-08-04T02:30:33;20.80;55.50
7447;DHT22;3765;47.962;7.952;2022-08-04T02:33:08;20.80;55.60
7447;DHT22;3765;47.962;7.952;2022-08-04T02:35:42;20.80;55.70
7447;DHT22;3765;47.962;7.952;2022-08-04T02:38:32;20.70;55.80
7447;DHT22;3765;47.962;7.952;2022-08-04T02:41:07;20.70;55.90
7447;DHT22;3765;47.962;7.952;2022-08-04T02:43:41;20.70;56.00
7447;DHT22;3765;47.962;7.952;2022-08-04T02:46:19;20.70;56.10
7447;DHT22;3765;47.962;7.952;2022-08-04T02:48:49;20.70;56.20
7447;DHT22;3765;47.962;7.952;2022-08-04T02:51:24;20.70;56.40
7447;DHT22;3765;47.962;7.952;2022-08-04T02:53:55;20.70;56.30
7447;DHT22;3765;47.962;7.952;2022-08-04T02:56:34;20.70;56.40
7447;DHT22;3765;47.962;7.952;2022-08-04T02:59:10;20.70;56.60
7447;DHT22;3765;47.962;7.952;2022-08-04T03:01:40;20.60;56.70
7447;DHT22;3765;47.962;7.952;2022-08-04T03:04:44;20.50;56.90
7447;DHT22;3765;47.962;7.952;2022-08-04T03:08:02;20.50;57.00
7447;DHT22;3765;47.962;7.952;2022-08-04T03:17:30;20.40;57.20
7447;DHT22;3765;47.962;7.952;2022-08-04T03:27:21;20.30;57.30
7447;DHT22;3765;47.962;7.952;2022-08-04T03:30:12;20.30;57.40
7447;DHT22;3765;47.962;7.952;2022-08-04T03:39:41;20.20;57.70
7447;DHT22;3765;47.962;7.952;2022-08-04T03:49:39;20.20;57.90
7447;DHT22;3765;47.962;7.952;2022-08-04T03:52:46;20.20;57.90
7447;DHT22;3765;47.962;7.952;2022-08-04T04:02:34;20.10;57.90
7447;DHT22;3765;47.962;7.952;2022-08-04T04:08:49;20.00;58.00
7447;DHT22;3765;47.962;7.952;2022-08-04T04:11:49;20.10;58.00
7447;DHT22;3765;47.962;7.952;2022-08-04T04:17:53;20.00;58.20
7447;DHT22;3765;47.962;7.952;2022-08-04T04:20:55;20.10;58.30
7447;DHT22;3765;47.962;7.952;2022-08-04T04:23:36;20.00;58.30
7447;DHT22;3765;47.962;7.952;2022-08-04T04:26:36;20.00;58.30
7447;DHT22;3765;47.962;7.952;2022-08-04T04:29:57;20.00;58.30
7447;DHT22;3765;47.962;7.952;2022-08-04T04:35:56;20.00;58.30
7447;DHT22;3765;47.962;7.952;2022-08-04T04:38:54;20.10;58.30
7447;DHT22;3765;47.962;7.952;2022-08-04T04:41:58;20.20;58.20
7447;DHT22;3765;47.962;7.952;2022-08-04T04:45:21;20.20;58.20
7447;DHT22;3765;47.962;7.952;2022-08-04T04:48:06;20.30;58.20
7447;DHT22;3765;47.962;7.952;2022-08-04T04:50:52;20.30;58.10
7447;DHT22;3765;47.962;7.952;2022-08-04T04:53:43;20.30;58.00
7447;DHT22;3765;47.962;7.952;2022-08-04T04:56:22;20.40;58.10
7447;DHT22;3765;47.962;7.952;2022-08-04T04:58:56;20.50;58.20
7447;DHT22;3765;47.962;7.952;2022-08-04T05:08:18;20.60;58.20
7447;DHT22;3765;47.962;7.952;2022-08-04T05:11:24;20.80;58.20
7447;DHT22;3765;47.962;7.952;2022-08-04T05:14:01;20.80;58.10
7447;DHT22;3765;47.962;7.952;2022-08-04T05:17:01;20.80;58.10
7447;DHT22;3765;47.962;7.952;2022-08-04T05:20:07;21.00;58.20
7447;DHT22;3765;47.962;7.952;2022-08-04T05:22:50;21.00;58.00
7447;DHT22;3765;47.962;7.952;2022-08-04T05:25:27;21.20;58.00
7447;DHT22;3765;47.962;7.952;2022-08-04T05:28:11;21.30;57.80
7447;DHT22;3765;47.962;7.952;2022-08-04T05:30:46;21.50;57.70
7447;DHT22;3765;47.962;7.952;2022-08-04T05:33:21;21.70;57.50
7447;DHT22;3765;47.962;7.952;2022-08-04T05:35:59;21.80;57.30
7447;DHT22;3765;47.962;7.952;2022-08-04T05:38:52;21.90;57.20
7447;DHT22;3765;47.962;7.952;2022-08-04T05:41:28;22.10;56.90
7447;DHT22;3765;47.962;7.952;2022-08-04T05:44:14;22.30;56.70
7447;DHT22;3765;47.962;7.952;2022-08-04T05:46:59;22.30;56.40
7447;DHT22;3765;47.962;7.952;2022-08-04T05:49:39;22.50;56.10
7447;DHT22;3765;47.962;7.952;2022-08-04T05:52:10;22.60;55.80
7447;DHT22;3765;47.962;7.952;2022-08-04T05:54:42;22.80;55.50
7447;DHT22;3765;47.962;7.952;2022-08-04T05:57:25;22.80;55.20
7447;DHT22;3765;47.962;7.952;2022-08-04T05:59:58;23.00;55.00
7447;DHT22;3765;47.962;7.952;2022-08-04T06:02:47;23.20;54.70
7447;DHT22;3765;47.962;7.952;2022-08-04T06:05:21;23.30;54.20
7447;DHT22;3765;47.962;7.952;2022-08-04T06:07:50;23.50;53.90
7447;DHT22;3765;47.962;7.952;2022-08-04T06:10:40;23.60;53.60
7447;DHT22;3765;47.962;7.952;2022-08-04T06:13:17;23.80;53.10
7447;DHT22;3765;47.962;7.952;2022-08-04T06:16:08;24.00;52.70
7447;DHT22;3765;47.962;7.952;2022-08-04T06:19:00;24.20;52.30
7447;DHT22;3765;47.962;7.952;2022-08-04T06:21:55;24.30;52.00
7447;DHT22;3765;47.962;7.952;2022-08-04T06:24:28;24.50;51.70
7447;DHT22;3765;47.962;7.952;2022-08-04T06:27:03;24.60;51.30
7447;DHT22;3765;47.962;7.952;2022-08-04T06:29:41;24.80;51.20
7447;DHT22;3765;47.962;7.952;2022-08-04T06:32:19;24.90;50.80
7447;DHT22;3765;47.962;7.952;2022-08-04T06:35:09;25.10;50.60
7447;DHT22;3765;47.962;7.952;2022-08-04T06:37:38;25.30;50.30
7447;DHT22;3765;47.962;7.952;2022-08-04T06:40:12;25.30;50.00
7447;DHT22;3765;47.962;7.952;2022-08-04T06:43:00;25.40;49.70
7447;DHT22;3765;47.962;7.952;2022-08-04T06:45:35;25.60;49.50
7447;DHT22;3765;47.962;7.952;2022-08-04T06:48:06;25.70;49.00
7447;DHT22;3765;47.962;7.952;2022-08-04T06:50:43;25.90;48.70
7447;DHT22;3765;47.962;7.952;2022-08-04T06:53:43;26.00;48.40
7447;DHT22;3765;47.962;7.952;2022-08-04T06:56:17;26.20;48.10
7447;DHT22;3765;47.962;7.952;2022-08-04T06:58:47;26.30;47.90
7447;DHT22;3765;47.962;7.952;2022-08-04T07:01:25;26.60;47.70
7447;DHT22;3765;47.962;7.952;2022-08-04T07:03:54;26.70;47.20
7447;DHT22;3765;47.962;7.952;2022-08-04T07:06:25;26.70;46.80
7447;DHT22;3765;47.962;7.952;2022-08-04T07:08:59;26.80;46.60
7447;DHT22;3765;47.962;7.952;2022-08-04T07:11:32;27.00;46.40
7447;DHT22;3765;47.962;7.952;2022-08-04T07:14:12;27.20;46.30
7447;DHT22;3765;47.962;7.952;2022-08-04T07:16:59;27.30;46.00
7447;DHT22;3765;47.962;7.952;2022-08-04T07:19:32;27.20;45.90
7447;DHT22;3765;47.962;7.952;2022-08-04T07:22:07;27.30;45.90
7447;DHT22;3765;47.962;7.952;2022-08-04T07:24:53;27.40;45.70
7447;DHT22;3765;47.962;7.952;2022-08-04T07:27:39;27.60;45.70
7447;DHT22;3765;47.962;7.952;2022-08-04T07:30:16;27.70;45.60
7447;DHT22;3765;47.962;7.952;2022-08-04T07:32:55;27.80;45.50
7447;DHT22;3765;47.962;7.952;2022-08-04T07:35:27;27.80;45.60
7447;DHT22;3765;47.962;7.952;2022-08-04T07:38:19;28.00;45.40
7447;DHT22;3765;47.962;7.952;2022-08-04T07:40:55;28.10;44.70
7447;DHT22;3765;47.962;7.952;2022-08-04T07:43:24;28.30;44.40
7447;DHT22;3765;47.962;7.952;2022-08-04T07:45:55;28.40;44.00
7447;DHT22;3765;47.962;7.952;2022-08-04T07:48:33;28.50;43.80
7447;DHT22;3765;47.962;7.952;2022-08-04T07:51:04;28.60;43.30
7447;DHT22;3765;47.962;7.952;2022-08-04T07:53:35;28.60;43.20
7447;DHT22;3765;47.962;7.952;2022-08-04T07:56:22;28.70;43.10
7447;DHT22;3765;47.962;7.952;2022-08-04T07:58:50;28.80;42.60
7447;DHT22;3765;47.962;7.952;2022-08-04T08:01:25;28.80;42.80
7447;DHT22;3765;47.962;7.952;2022-08-04T08:04:01;29.00;42.30
7447;DHT22;3765;47.962;7.952;2022-08-04T08:06:44;29.00;42.40
7447;DHT22;3765;47.962;7.952;2022-08-04T08:09:19;29.20;42.10
7447;DHT22;3765;47.962;7.952;2022-08-04T08:11:52;29.30;41.30
7447;DHT22;3765;47.962;7.952;2022-08-04T08:14:44;29.30;41.50
7447;DHT22;3765;47.962;7.952;2022-08-04T08:17:19;29.50;41.50
7447;DHT22;3765;47.962;7.952;2022-08-04T08:19:54;29.70;41.00
7447;DHT22;3765;47.962;7.952;2022-08-04T08:22:24;29.80;41.40
7447;DHT22;3765;47.962;7.952;2022-08-04T08:24:53;29.90;41.40
7447;DHT22;3765;47.962;7.952;2022-08-04T08:27:21;30.20;41.40
7447;DHT22;3765;47.962;7.952;2022-08-04T08:29:50;30.20;40.80
7447;DHT22;3765;47.962;7.952;2022-08-04T08:32:20;30.30;40.70
7447;DHT22;3765;47.962;7.952;2022-08-04T08:35:13;30.50;40.60
7447;DHT22;3765;47.962;7.952;2022-08-04T08:37:46;30.50;40.00
7447;DHT22;3765;47.962;7.952;2022-08-04T08:40:28;30.70;40.10
7447;DHT22;3765;47.962;7.952;2022-08-04T08:43:25;30.80;39.70
7447;DHT22;3765;47.962;7.952;2022-08-04T08:49:54;31.00;38.90
7447;DHT22;3765;47.962;7.952;2022-08-04T08:53:02;31.00;38.80
7447;DHT22;3765;47.962;7.952;2022-08-04T08:55:44;31.00;38.70
7447;DHT22;3765;47.962;7.952;2022-08-04T08:58:29;31.20;38.60
7447;DHT22;3765;47.962;7.952;2022-08-04T09:01:06;31.40;38.60
7447;DHT22;3765;47.962;7.952;2022-08-04T09:09:57;31.60;37.60
7447;DHT22;3765;47.962;7.952;2022-08-04T09:12:34;31.80;37.50
7447;DHT22;3765;47.962;7.952;2022-08-04T09:15:10;31.90;36.90
7447;DHT22;3765;47.962;7.952;2022-08-04T09:17:44;32.00;35.80
7447;DHT22;3765;47.962;7.952;2022-08-04T09:20:21;32.20;35.70
7447;DHT22;3765;47.962;7.952;2022-08-04T09:22:55;32.30;35.10
7447;DHT22;3765;47.962;7.952;2022-08-04T09:25:31;32.50;34.70
7447;DHT22;3765;47.962;7.952;2022-08-04T09:28:04;32.60;34.70
7447;DHT22;3765;47.962;7.952;2022-08-04T09:30:39;32.50;34.20
7447;DHT22;3765;47.962;7.952;2022-08-04T09:33:17;32.50;34.10
7447;DHT22;3765;47.962;7.952;2022-08-04T09:36:14;32.60;34.20
7447;DHT22;3765;47.962;7.952;2022-08-04T09:39:05;32.70;34.30
7447;DHT22;3765;47.962;7.952;2022-08-04T09:41:45;32.70;33.80
7447;DHT22;3765;47.962;7.952;2022-08-04T09:44:25;32.60;33.30
7447;DHT22;3765;47.962;7.952;2022-08-04T09:47:20;32.60;33.70
7447;DHT22;3765;47.962;7.952;2022-08-04T09:50:14;32.60;33.40
7447;DHT22;3765;47.962;7.952;2022-08-04T09:52:48;32.60;33.50
7447;DHT22;3765;47.962;7.952;2022-08-04T09:55:34;32.60;33.30
7447;DHT22;3765;47.962;7.952;2022-08-04T09:58:31;32.60;33.10
7447;DHT22;3765;47.962;7.952;2022-08-04T10:01:07;32.70;33.30
7447;DHT22;3765;47.962;7.952;2022-08-04T10:03:40;32.80;33.10
7447;DHT22;3765;47.962;7.952;2022-08-04T10:09:21;32.80;32.70
7447;DHT22;3765;47.962;7.952;2022-08-04T10:12:14;32.70;32.00
7447;DHT22;3765;47.962;7.952;2022-08-04T10:14:51;32.90;32.10
7447;DHT22;3765;47.962;7.952;2022-08-04T10:17:30;33.00;32.10
7447;DHT22;3765;47.962;7.952;2022-08-04T10:20:08;33.20;31.90
7447;DHT22;3765;47.962;7.952;2022-08-04T10:22:40;33.20;31.80
7447;DHT22;3765;47.962;7.952;2022-08-04T10:25:37;33.30;32.10
7447;DHT22;3765;47.962;7.952;2022-08-04T10:28:30;33.30;31.60
7447;DHT22;3765;47.962;7.952;2022-08-04T10:31:07;33.20;31.30
7447;DHT22;3765;47.962;7.952;2022-08-04T10:33:44;33.20;31.40
7447;DHT22;3765;47.962;7.952;2022-08-04T10:36:20;33.30;31.40
7447;DHT22;3765;47.962;7.952;2022-08-04T10:38:55;33.40;31.20
7447;DHT22;3765;47.962;7.952;2022-08-04T10:41:29;33.50;31.10
7447;DHT22;3765;47.962;7.952;2022-08-04T10:44:10;33.60;31.00
7447;DHT22;3765;47.962;7.952;2022-08-04T10:46:46;33.40;30.40
7447;DHT22;3765;47.962;7.952;2022-08-04T10:49:22;33.50;29.90
7447;DHT22;3765;47.962;7.952;2022-08-04T10:52:00;33.70;30.20
7447;DHT22;3765;47.962;7.952;2022-08-04T10:54:36;33.60;29.60
7447;DHT22;3765;47.962;7.952;2022-08-04T10:57:13;33.70;29.70
7447;DHT22;3765;47.962;7.952;2022-08-04T10:59:46;33.80;29.60
7447;DHT22;3765;47.962;7.952;2022-08-04T11:02:36;34.00;29.40
7447;DHT22;3765;47.962;7.952;2022-08-04T11:05:16;34.00;28.60
7447;DHT22;3765;47.962;7.952;2022-08-04T11:07:49;34.00;29.00
7447;DHT22;3765;47.962;7.952;2022-08-04T11:10:20;34.00;28.70
7447;DHT22;3765;47.962;7.952;2022-08-04T11:12:55;34.10;28.80
7447;DHT22;3765;47.962;7.952;2022-08-04T11:15:29;34.20;28.20
7447;DHT22;3765;47.962;7.952;2022-08-04T11:18:07;34.20;28.20
7447;DHT22;3765;47.962;7.952;2022-08-04T11:20:49;34.20;28.20
7447;DHT22;3765;47.962;7.952;2022-08-04T11:23:25;34.20;28.00
7447;DHT22;3765;47.962;7.952;2022-08-04T11:25:58;34.40;28.10
7447;DHT22;3765;47.962;7.952;2022-08-04T11:28:36;34.40;27.20
7447;DHT22;3765;47.962;7.952;2022-08-04T11:31:10;34.50;27.50
7447;DHT22;3765;47.962;7.952;2022-08-04T11:33:46;34.50;26.90
7447;DHT22;3765;47.962;7.952;2022-08-04T11:36:21;34.50;27.30
7447;DHT22;3765;47.962;7.952;2022-08-04T11:38:57;34.50;26.90
7447;DHT22;3765;47.962;7.952;2022-08-04T11:41:39;34.50;26.90
7447;DHT22;3765;47.962;7.952;2022-08-04T11:44:15;34.60;26.50
7447;DHT22;3765;47.962;7.952;2022-08-04T11:46:49;34.50;26.70
7447;DHT22;3765;47.962;7.952;2022-08-04T11:49:28;34.80;26.90
7447;DHT22;3765;47.962;7.952;2022-08-04T11:52:19;34.70;26.50
7447;DHT22;3765;47.962;7.952;2022-08-04T11:54:48;34.70;26.30
7447;DHT22;3765;47.962;7.952;2022-08-04T11:57:20;34.80;26.30
7447;DHT22;3765;47.962;7.952;2022-08-04T12:00:04;35.00;26.10
7447;DHT22;3765;47.962;7.952;2022-08-04T12:02:57;35.20;26.20
7447;DHT22;3765;47.962;7.952;2022-08-04T12:05:31;35.10;25.90
7447;DHT22;3765;47.962;7.952;2022-08-04T12:08:22;35.00;26.00
7447;DHT22;3765;47.962;7.952;2022-08-04T12:11:04;35.20;25.90
7447;DHT22;3765;47.962;7.952;2022-08-04T12:13:40;35.30;25.90
7447;DHT22;3765;47.962;7.952;2022-08-04T12:16:15;35.70;25.80
7447;DHT22;3765;47.962;7.952;2022-08-04T12:18:49;35.20;25.50
7447;DHT22;3765;47.962;7.952;2022-08-04T12:21:28;35.30;25.60
7447;DHT22;3765;47.962;7.952;2022-08-04T12:24:03;35.40;25.30
7447;DHT22;3765;47.962;7.952;2022-08-04T12:26:36;35.50;25.50
7447;DHT22;3765;47.962;7.952;2022-08-04T12:29:06;35.40;25.40
7447;DHT22;3765;47.962;7.952;2022-08-04T12:31:43;35.40;25.30
7447;DHT22;3765;47.962;7.952;2022-08-04T12:34:15;35.40;25.40
7447;DHT22;3765;47.962;7.952;2022-08-04T12:36:52;35.70;25.30
7447;DHT22;3765;47.962;7.952;2022-08-04T12:39:22;35.80;25.00
7447;DHT22;3765;47.962;7.952;2022-08-04T12:52:29;35.70;25.00
7447;DHT22;3765;47.962;7.952;2022-08-04T12:55:19;36.40;24.30
7447;DHT22;3765;47.962;7.952;2022-08-04T12:57:50;36.20;24.30
7447;DHT22;3765;47.962;7.952;2022-08-04T13:00:27;36.30;24.50
7447;DHT22;3765;47.962;7.952;2022-08-04T13:03:09;36.30;24.50
7447;DHT22;3765;47.962;7.952;2022-08-04T13:05:39;36.30;23.90
7447;DHT22;3765;47.962;7.952;2022-08-04T13:08:11;36.30;24.30
7447;DHT22;3765;47.962;7.952;2022-08-04T13:10:43;36.70;24.40
7447;DHT22;3765;47.962;7.952;2022-08-04T13:13:15;37.00;24.10
7447;DHT22;3765;47.962;7.952;2022-08-04T13:15:54;37.20;24.20
7447;DHT22;3765;47.962;7.952;2022-08-04T13:18:25;37.80;23.80
7447;DHT22;3765;47.962;7.952;2022-08-04T13:21:12;37.70;23.20
7447;DHT22;3765;47.962;7.952;2022-08-04T13:23:50;37.30;23.50
7447;DHT22;3765;47.962;7.952;2022-08-04T13:26:48;37.30;23.80
7447;DHT22;3765;47.962;7.952;2022-08-04T13:29:23;36.90;23.20
7447;DHT22;3765;47.962;7.952;2022-08-04T13:32:15;37.10;23.40
7447;DHT22;3765;47.962;7.952;2022-08-04T13:34:45;37.00;23.10
7447;DHT22;3765;47.962;7.952;2022-08-04T13:37:16;36.90;23.10
7447;DHT22;3765;47.962;7.952;2022-08-04T13:39:49;37.10;23.20
7447;DHT22;3765;47.962;7.952;2022-08-04T13:42:23;37.70;23.20
7447;DHT22;3765;47.962;7.952;2022-08-04T13:44:55;38.20;22.90
7447;DHT22;3765;47.962;7.952;2022-08-04T13:47:26;38.30;22.90
7447;DHT22;3765;47.962;7.952;2022-08-04T13:50:11;37.80;22.50
7447;DHT22;3765;47.962;7.952;2022-08-04T13:52:45;37.60;22.50
7447;DHT22;3765;47.962;7.952;2022-08-04T13:55:23;38.10;22.70
7447;DHT22;3765;47.962;7.952;2022-08-04T13:57:56;38.70;22.30
7447;DHT22;3765;47.962;7.952;2022-08-04T14:00:34;39.00;22.20
7447;DHT22;3765;47.962;7.952;2022-08-04T14:03:06;38.40;22.00
7447;DHT22;3765;47.962;7.952;2022-08-04T14:06:08;38.70;21.70
7447;DHT22;3765;47.962;7.952;2022-08-04T14:08:48;38.70;21.80
7447;DHT22;3765;47.962;7.952;2022-08-04T14:11:21;38.70;21.60
7447;DHT22;3765;47.962;7.952;2022-08-04T14:14:17;38.80;21.30
7447;DHT22;3765;47.962;7.952;2022-08-04T14:16:56;38.70;21.40
7447;DHT22;3765;47.962;7.952;2022-08-04T14:19:26;38.80;21.30
7447;DHT22;3765;47.962;7.952;2022-08-04T14:22:03;39.00;21.20
7447;DHT22;3765;47.962;7.952;2022-08-04T14:24:42;39.40;21.20
7447;DHT22;3765;47.962;7.952;2022-08-04T14:27:18;39.40;20.60
7447;DHT22;3765;47.962;7.952;2022-08-04T14:29:51;39.10;20.70
7447;DHT22;3765;47.962;7.952;2022-08-04T14:32:21;39.30;20.30
7447;DHT22;3765;47.962;7.952;2022-08-04T14:34:52;39.10;20.70
7447;DHT22;3765;47.962;7.952;2022-08-04T14:37:20;39.10;20.60
7447;DHT22;3765;47.962;7.952;2022-08-04T14:39:51;39.30;20.70
7447;DHT22;3765;47.962;7.952;2022-08-04T14:42:45;40.10;20.50
7447;DHT22;3765;47.962;7.952;2022-08-04T14:45:29;40.20;20.30
7447;DHT22;3765;47.962;7.952;2022-08-04T14:48:05;40.80;20.40
7447;DHT22;3765;47.962;7.952;2022-08-04T14:50:36;41.30;20.10
7447;DHT22;3765;47.962;7.952;2022-08-04T14:53:07;41.60;19.80
7447;DHT22;3765;47.962;7.952;2022-08-04T14:55:36;41.80;19.70
7447;DHT22;3765;47.962;7.952;2022-08-04T14:58:06;41.20;19.40
7447;DHT22;3765;47.962;7.952;2022-08-04T15:00:56;40.70;19.70
7447;DHT22;3765;47.962;7.952;2022-08-04T15:03:25;40.50;19.40
7447;DHT22;3765;47.962;7.952;2022-08-04T15:05:55;40.70;19.60
7447;DHT22;3765;47.962;7.952;2022-08-04T15:08:33;41.50;19.40
7447;DHT22;3765;47.962;7.952;2022-08-04T15:11:02;41.90;19.10
7447;DHT22;3765;47.962;7.952;2022-08-04T15:13:32;41.70;19.00
7447;DHT22;3765;47.962;7.952;2022-08-04T15:16:00;42.10;19.00
7447;DHT22;3765;47.962;7.952;2022-08-04T15:18:37;42.40;18.50
7447;DHT22;3765;47.962;7.952;2022-08-04T15:21:06;41.90;18.70
7447;DHT22;3765;47.962;7.952;2022-08-04T15:23:35;41.40;18.60
7447;DHT22;3765;47.962;7.952;2022-08-04T15:26:10;41.40;18.80
7447;DHT22;3765;47.962;7.952;2022-08-04T15:28:44;42.20;18.70
7447;DHT22;3765;47.962;7.952;2022-08-04T15:31:15;42.40;18.70
7447;DHT22;3765;47.962;7.952;2022-08-04T15:34:05;42.20;18.50
7447;DHT22;3765;47.962;7.952;2022-08-04T15:36:46;42.20;18.50
7447;DHT22;3765;47.962;7.952;2022-08-04T15:39:33;42.30;18.60
7447;DHT22;3765;47.962;7.952;2022-08-04T15:42:16;43.30;18.20
7447;DHT22;3765;47.962;7.952;2022-08-04T15:45:02;45.10;17.70
7447;DHT22;3765;47.962;7.952;2022-08-04T15:47:31;47.00;16.70
7447;DHT22;3765;47.962;7.952;2022-08-04T15:50:06;47.50;16.50
7447;DHT22;3765;47.962;7.952;2022-08-04T15:53:00;48.20;16.20
7447;DHT22;3765;47.962;7.952;2022-08-04T15:55:40;49.30;15.60
7447;DHT22;3765;47.962;7.952;2022-08-04T15:58:11;49.90;15.70
7447;DHT22;3765;47.962;7.952;2022-08-04T16:01:14;49.90;15.30
7447;DHT22;3765;47.962;7.952;2022-08-04T16:03:45;50.00;15.10
7447;DHT22;3765;47.962;7.952;2022-08-04T16:06:42;49.00;15.10
7447;DHT22;3765;47.962;7.952;2022-08-04T16:09:21;48.30;15.20
7447;DHT22;3765;47.962;7.952;2022-08-04T16:15:39;49.60;14.90
7447;DHT22;3765;47.962;7.952;2022-08-04T16:18:10;52.20;14.50
7447;DHT22;3765;47.962;7.952;2022-08-04T16:20:54;53.00;13.90
7447;DHT22;3765;47.962;7.952;2022-08-04T16:23:55;51.90;14.00
7447;DHT22;3765;47.962;7.952;2022-08-04T16:26:47;50.50;14.20
7447;DHT22;3765;47.962;7.952;2022-08-04T16:29:33;49.70;14.40
7447;DHT22;3765;47.962;7.952;2022-08-04T16:32:10;48.70;14.40
7447;DHT22;3765;47.962;7.952;2022-08-04T16:34:42;47.70;14.70
7447;DHT22;3765;47.962;7.952;2022-08-04T16:37:17;47.70;14.70
7447;DHT22;3765;47.962;7.952;2022-08-04T16:39:46;48.60;14.70
7447;DHT22;3765;47.962;7.952;2022-08-04T16:42:34;49.40;14.40
7447;DHT22;3765;47.962;7.952;2022-08-04T16:45:10;49.60;14.40
7447;DHT22;3765;47.962;7.952;2022-08-04T16:48:00;49.50;14.30
7447;DHT22;3765;47.962;7.952;2022-08-04T16:50:31;48.40;14.30
7447;DHT22;3765;47.962;7.952;2022-08-04T16:53:00;46.60;14.50
7447;DHT22;3765;47.962;7.952;2022-08-04T16:55:57;44.40;15.20
7447;DHT22;3765;47.962;7.952;2022-08-04T16:58:30;42.80;15.80
7447;DHT22;3765;47.962;7.952;2022-08-04T17:01:06;41.70;16.20
7447;DHT22;3765;47.962;7.952;2022-08-04T17:03:36;40.30;16.80
7447;DHT22;3765;47.962;7.952;2022-08-04T17:06:11;39.50;17.40
7447;DHT22;3765;47.962;7.952;2022-08-04T17:08:42;38.80;17.80
7447;DHT22;3765;47.962;7.952;2022-08-04T17:11:14;38.70;18.40
7447;DHT22;3765;47.962;7.952;2022-08-04T17:13:52;38.50;18.80
7447;DHT22;3765;47.962;7.952;2022-08-04T17:16:34;38.00;19.10
7447;DHT22;3765;47.962;7.952;2022-08-04T17:19:06;37.50;19.60
7447;DHT22;3765;47.962;7.952;2022-08-04T17:21:59;37.40;19.90
7447;DHT22;3765;47.962;7.952;2022-08-04T17:24:38;37.20;20.30
7447;DHT22;3765;47.962;7.952;2022-08-04T17:27:14;37.10;20.60
7447;DHT22;3765;47.962;7.952;2022-08-04T17:30:24;36.80;21.30
7447;DHT22;3765;47.962;7.952;2022-08-04T17:32:57;36.50;22.10
7447;DHT22;3765;47.962;7.952;2022-08-04T17:35:26;36.10;22.80
7447;DHT22;3765;47.962;7.952;2022-08-04T17:38:10;35.80;23.30
7447;DHT22;3765;47.962;7.952;2022-08-04T17:40:55;35.70;23.70
7447;DHT22;3765;47.962;7.952;2022-08-04T17:43:52;35.40;24.00
7447;DHT22;3765;47.962;7.952;2022-08-04T17:46:35;35.20;24.40
7447;DHT22;3765;47.962;7.952;2022-08-04T17:49:08;35.00;24.80
7447;DHT22;3765;47.962;7.952;2022-08-04T17:51:46;34.70;25.00
7447;DHT22;3765;47.962;7.952;2022-08-04T17:54:38;34.50;25.30
7447;DHT22;3765;47.962;7.952;2022-08-04T17:57:13;34.30;25.40
7447;DHT22;3765;47.962;7.952;2022-08-04T17:59:49;34.10;25.70
7447;DHT22;3765;47.962;7.952;2022-08-04T18:02:26;33.90;26.00
7447;DHT22;3765;47.962;7.952;2022-08-04T18:04:59;33.70;26.10
7447;DHT22;3765;47.962;7.952;2022-08-04T18:07:39;33.50;26.40
7447;DHT22;3765;47.962;7.952;2022-08-04T18:10:36;33.30;26.70
7447;DHT22;3765;47.962;7.952;2022-08-04T18:13:23;33.10;26.90
7447;DHT22;3765;47.962;7.952;2022-08-04T18:16:02;32.90;27.20
7447;DHT22;3765;47.962;7.952;2022-08-04T18:18:31;32.80;27.40
7447;DHT22;3765;47.962;7.952;2022-08-04T18:21:04;32.70;27.60
7447;DHT22;3765;47.962;7.952;2022-08-04T18:23:32;32.50;27.80
7447;DHT22;3765;47.962;7.952;2022-08-04T18:26:19;32.20;28.10
7447;DHT22;3765;47.962;7.952;2022-08-04T18:28:49;32.00;28.30
7447;DHT22;3765;47.962;7.952;2022-08-04T18:31:18;31.80;28.50
7447;DHT22;3765;47.962;7.952;2022-08-04T18:34:06;31.70;28.70
7447;DHT22;3765;47.962;7.952;2022-08-04T18:36:46;31.40;29.00
7447;DHT22;3765;47.962;7.952;2022-08-04T18:39:24;31.30;29.30
7447;DHT22;3765;47.962;7.952;2022-08-04T18:42:16;31.20;29.40
7447;DHT22;3765;47.962;7.952;2022-08-04T18:44:44;31.10;29.50
7447;DHT22;3765;47.962;7.952;2022-08-04T18:47:19;31.00;29.70